CYOJ

High Level Airport

High Level, Alberta, Canada
METAR CYOJ 222100Z 29006KT 210V340 15SM FEW030 06/M02 A3010 RMK SC1 SLP212
Observed Flight Rules
Apr-22 @ 21:00 UTC (an hour ago) Visual Flight Rules
Wind Visibility Clouds
290° at 6 knots 15 miles
  • Few at 3,000' AGL
Temperatures Readings
Current 6°C / 43°F
Dewpoint -2°C / 28°F
Humidity 57%
Altimeter 30.1" Hg
Pressure 1021.2 hPa
Elevation 338
METAR CYOJ 222100Z 29006KT 210V340 15SM FEW030 06/M02 A3010 RMK SC1 SLP212
Observed Flight Rules
Apr-22 @ 21:00 UTC
(an hour ago)
VFR
Wind Visibility
290° at 6 knots 15 miles
Clouds
  • Few at 3,000' AGL
Temperature Dewpoint
6°C / 43°F -2°C / 28°F
Humidity Altimeter Pressure
57% 30.1" Hg 1021.2 hPa